createdAt,value
2023-01-17T00:05:01.156Z,4.10
2023-01-17T00:10:22.396Z,3.35
2023-01-17T00:15:24.794Z,2.50
2023-01-17T00:20:27.688Z,2.63
2023-01-17T00:25:38.000Z,1.85
2023-01-17T00:30:39.881Z,1.25
2023-01-17T00:35:42.139Z,1.08
2023-01-17T00:40:44.654Z,1.50
2023-01-17T00:45:46.562Z,1.27
2023-01-17T00:50:48.364Z,0.82
2023-01-17T00:55:50.205Z,0.82
2023-01-17T01:00:52.183Z,0.50
2023-01-17T01:05:54.089Z,0.57
2023-01-17T01:10:55.925Z,0.63
2023-01-17T01:16:01.512Z,0.55
2023-01-17T01:21:03.750Z,0.30
2023-01-17T01:26:05.615Z,0.30
2023-01-17T01:31:07.509Z,0.28
2023-01-17T01:36:09.705Z,0.50
2023-01-17T01:41:11.943Z,0.50
2023-01-17T01:46:21.689Z,0.43
2023-01-17T01:51:29.455Z,0.40
2023-01-17T01:56:31.822Z,0.50
2023-01-17T02:01:33.965Z,1.13
2023-01-17T02:06:37.299Z,0.70
2023-01-17T02:16:43.341Z,1.25
2023-01-17T02:21:50.254Z,0.65
2023-01-17T02:26:55.116Z,0.65
2023-01-17T02:32:00.590Z,0.40
2023-01-17T02:37:11.708Z,0.68
2023-01-17T02:42:16.579Z,0.50
2023-01-17T02:47:23.018Z,0.73
2023-01-17T02:52:34.136Z,0.70
2023-01-17T02:58:01.581Z,1.35
2023-01-17T03:03:12.657Z,0.50
2023-01-17T03:08:14.992Z,0.90
2023-01-17T03:13:16.824Z,0.73
2023-01-17T03:18:18.645Z,0.60
2023-01-17T03:23:20.439Z,0.70
2023-01-17T03:28:22.252Z,0.73
2023-01-17T03:33:24.527Z,0.88
2023-01-17T03:38:26.661Z,0.60
2023-01-17T03:43:28.489Z,1.02
2023-01-17T03:48:30.798Z,0.73
2023-01-17T03:53:32.656Z,1.13
2023-01-17T03:58:34.802Z,0.57
2023-01-17T04:03:36.618Z,0.50
2023-01-17T04:08:38.484Z,1.17
2023-01-17T04:13:40.529Z,0.50
2023-01-17T04:18:42.353Z,0.50
2023-01-17T04:23:44.190Z,0.98
2023-01-17T04:28:46.010Z,0.88
2023-01-17T04:33:47.837Z,0.73
2023-01-17T04:38:49.658Z,0.50
2023-01-17T04:43:51.473Z,0.65
2023-01-17T04:48:53.285Z,0.75
2023-01-17T04:53:55.139Z,0.75
2023-01-17T04:58:57.571Z,0.70
2023-01-17T05:03:59.387Z,0.60
2023-01-17T05:09:01.217Z,0.65
2023-01-17T05:14:03.090Z,1.10
2023-01-17T05:19:04.934Z,0.88
2023-01-17T05:24:07.038Z,0.70
2023-01-17T05:29:09.423Z,0.50
2023-01-17T05:34:11.487Z,0.60
2023-01-17T05:39:13.334Z,0.60
2023-01-17T05:44:15.197Z,0.70
2023-01-17T05:49:17.063Z,1.17
2023-01-17T05:54:18.970Z,0.77
2023-01-17T05:59:35.948Z,1.10
2023-01-17T06:04:38.740Z,0.80
2023-01-17T06:09:40.705Z,1.30
2023-01-17T06:14:42.545Z,1.13
2023-01-17T06:19:44.404Z,1.33
2023-01-17T06:24:46.232Z,1.10
2023-01-17T06:29:48.056Z,0.77
2023-01-17T06:34:49.866Z,1.63
2023-01-17T06:39:51.682Z,0.90
2023-01-17T06:44:53.514Z,1.17
2023-01-17T06:49:55.314Z,1.20
2023-01-17T06:54:57.121Z,1.73
2023-01-17T06:59:59.002Z,1.00
2023-01-17T07:05:00.829Z,0.90
2023-01-17T07:10:02.779Z,0.85
2023-01-17T07:15:05.079Z,1.00
2023-01-17T07:20:07.550Z,0.93
2023-01-17T07:25:09.529Z,1.00
2023-01-17T07:30:12.083Z,1.02
2023-01-17T07:35:14.220Z,1.00
2023-01-17T07:40:16.875Z,0.80
2023-01-17T07:45:18.773Z,1.02
2023-01-17T07:50:20.596Z,1.42
2023-01-17T07:55:22.586Z,0.90
2023-01-17T08:00:24.930Z,0.70
2023-01-17T08:05:28.126Z,0.60
2023-01-17T08:10:30.335Z,0.45
2023-01-17T08:15:32.231Z,0.60
2023-01-17T08:20:34.183Z,0.60
2023-01-17T08:25:36.409Z,0.90
2023-01-17T08:30:38.416Z,0.80
2023-01-17T08:35:40.255Z,0.55
2023-01-17T08:40:43.180Z,0.70
2023-01-17T08:45:45.723Z,0.70
2023-01-17T08:50:47.592Z,0.75
2023-01-17T08:55:56.733Z,0.55
2023-01-17T09:01:02.061Z,1.00
2023-01-17T09:06:08.517Z,1.00
2023-01-17T09:11:11.753Z,0.70
2023-01-17T09:21:16.668Z,0.55
2023-01-17T09:26:20.627Z,0.50
2023-01-17T09:31:23.376Z,0.70
2023-01-17T09:36:25.710Z,0.90
2023-01-17T09:41:33.526Z,1.07
2023-01-17T09:46:41.628Z,0.98
2023-01-17T09:51:43.791Z,1.20
2023-01-17T09:56:48.385Z,1.23
2023-01-17T10:01:56.688Z,1.55
2023-01-17T10:06:58.660Z,1.30
2023-01-17T10:12:35.772Z,1.40
2023-01-17T10:17:46.527Z,1.50
2023-01-17T10:23:10.794Z,2.08
2023-01-17T10:28:14.927Z,1.15
2023-01-17T10:33:16.795Z,1.67
2023-01-17T10:38:20.554Z,1.20
2023-01-17T10:43:27.054Z,1.38
2023-01-17T10:48:35.295Z,1.02
2023-01-17T10:53:46.217Z,1.42
2023-01-17T10:58:49.102Z,1.00
2023-01-17T11:03:51.590Z,1.40
2023-01-17T11:08:53.383Z,1.10
2023-01-17T11:13:57.107Z,1.20
2023-01-17T11:19:07.860Z,0.93
2023-01-17T11:24:11.157Z,1.20
2023-01-17T11:34:16.263Z,1.20
2023-01-17T11:39:18.104Z,1.20
2023-01-17T11:44:24.753Z,0.85
2023-01-17T11:49:26.602Z,0.90
2023-01-17T11:54:29.997Z,0.98
2023-01-17T11:59:32.812Z,0.73
2023-01-17T12:04:42.753Z,1.20
2023-01-17T12:09:44.604Z,1.20
2023-01-17T12:15:05.143Z,1.00
2023-01-17T12:20:11.317Z,0.80
2023-01-17T12:25:19.267Z,1.05
2023-01-17T12:30:24.186Z,1.20
2023-01-17T12:35:30.325Z,1.42
2023-01-17T12:40:46.305Z,1.20
2023-01-17T12:45:49.289Z,1.00
2023-01-17T12:50:51.076Z,1.10
2023-01-17T12:55:58.999Z,1.10
2023-01-17T13:01:28.005Z,0.85
2023-01-17T13:06:45.203Z,0.90
2023-01-17T13:11:50.401Z,1.00
2023-01-17T13:17:15.361Z,1.10
2023-01-17T13:22:17.840Z,1.33
2023-01-17T13:27:20.340Z,1.30
2023-01-17T13:32:22.126Z,1.23
2023-01-17T13:37:36.212Z,1.10
2023-01-17T13:42:41.057Z,1.20
2023-01-17T13:47:42.923Z,0.95
2023-01-17T13:52:44.897Z,1.00
2023-01-17T13:57:46.802Z,0.85
2023-01-17T14:02:49.527Z,0.75
2023-01-17T14:08:02.370Z,1.13
2023-01-17T14:13:05.714Z,1.00
2023-01-17T14:23:22.584Z,1.13
2023-01-17T14:28:33.477Z,0.98
2023-01-17T14:33:37.366Z,1.00
2023-01-17T14:38:42.761Z,1.00
2023-01-17T14:43:45.799Z,0.70
2023-01-17T14:48:47.736Z,1.05
2023-01-17T14:53:55.662Z,1.33
2023-01-17T14:59:04.937Z,1.25
2023-01-17T15:04:06.770Z,1.15
2023-01-17T15:09:09.379Z,1.20
2023-01-17T15:14:17.349Z,1.10
2023-01-17T15:19:19.891Z,0.77
2023-01-17T15:24:26.149Z,1.00
2023-01-17T15:29:31.731Z,1.30
2023-01-17T15:34:35.768Z,1.42
2023-01-17T15:39:38.674Z,1.30
2023-01-17T15:44:48.523Z,1.02
2023-01-17T15:49:52.377Z,1.55
2023-01-17T15:54:59.778Z,1.25
2023-01-17T16:00:05.016Z,1.30
2023-01-17T16:05:22.606Z,1.35
2023-01-17T16:10:27.622Z,1.67
2023-01-17T16:15:30.204Z,1.20
2023-01-17T16:20:43.287Z,2.10
2023-01-17T16:25:45.479Z,1.75
2023-01-17T16:30:47.638Z,1.23
2023-01-17T16:35:49.663Z,1.67
2023-01-17T16:40:51.642Z,1.15
2023-01-17T16:45:53.633Z,1.35
2023-01-17T16:50:55.641Z,1.27
2023-01-17T16:56:05.300Z,1.67
2023-01-17T17:01:10.985Z,1.55
2023-01-17T17:06:13.264Z,1.80
2023-01-17T17:11:20.019Z,2.20
2023-01-17T17:16:23.510Z,2.13
2023-01-17T17:21:27.121Z,2.03
2023-01-17T17:26:33.463Z,2.78
2023-01-17T17:31:35.381Z,2.47
2023-01-17T17:36:37.490Z,3.05
2023-01-17T17:41:41.287Z,2.47
2023-01-17T17:46:43.210Z,2.40
2023-01-17T17:51:45.259Z,2.58
2023-01-17T17:56:47.483Z,2.90
2023-01-17T18:01:50.605Z,2.63
2023-01-17T18:06:56.930Z,2.50
2023-01-17T18:11:58.953Z,3.00
2023-01-17T18:17:00.942Z,2.78
2023-01-17T18:22:03.068Z,2.50
2023-01-17T18:27:05.332Z,2.38
2023-01-17T18:32:07.278Z,2.28
2023-01-17T18:37:09.243Z,2.10
2023-01-17T18:42:11.218Z,2.55
2023-01-17T18:47:13.285Z,2.58
2023-01-17T18:52:15.132Z,2.33
2023-01-17T18:57:16.977Z,2.40
2023-01-17T19:02:18.889Z,2.10
2023-01-17T19:07:20.713Z,2.25
2023-01-17T19:12:22.555Z,2.67
2023-01-17T19:17:24.366Z,2.33
2023-01-17T19:22:26.193Z,2.67
2023-01-17T19:27:28.023Z,2.60
2023-01-17T19:32:29.820Z,2.85
2023-01-17T19:37:31.624Z,2.63
2023-01-17T19:42:33.664Z,2.50
2023-01-17T19:47:35.925Z,2.83
2023-01-17T19:52:38.627Z,3.37
2023-01-17T19:57:40.477Z,3.10
2023-01-17T20:02:42.312Z,3.47
2023-01-17T20:07:44.237Z,3.47
2023-01-17T20:12:46.066Z,3.50
2023-01-17T20:17:47.859Z,4.13
2023-01-17T20:22:49.871Z,3.78
2023-01-17T20:27:51.689Z,3.45
2023-01-17T20:32:53.499Z,3.97
2023-01-17T20:37:55.738Z,3.88
2023-01-17T20:42:57.914Z,3.78
2023-01-17T20:48:00.125Z,4.07
2023-01-17T20:53:02.783Z,4.20
2023-01-17T20:58:04.924Z,3.92
2023-01-17T21:03:07.093Z,4.17
2023-01-17T21:08:09.271Z,4.10
2023-01-17T21:13:11.537Z,3.57
2023-01-17T21:18:13.968Z,4.10
2023-01-17T21:23:15.897Z,3.43
2023-01-17T21:28:17.877Z,3.30
2023-01-17T21:33:20.284Z,3.05
2023-01-17T21:38:22.082Z,2.80
2023-01-17T21:43:23.921Z,3.25
2023-01-17T21:48:25.747Z,3.20
2023-01-17T21:53:27.545Z,2.75
2023-01-17T21:58:29.352Z,2.95
2023-01-17T22:03:31.179Z,3.03
2023-01-17T22:08:33.315Z,2.88
2023-01-17T22:13:35.666Z,3.00
2023-01-17T22:18:38.398Z,2.40
2023-01-17T22:23:44.438Z,2.75
2023-01-17T22:28:46.349Z,2.92
2023-01-17T22:33:52.046Z,2.38
2023-01-17T22:38:54.080Z,2.47
2023-01-17T22:43:58.543Z,2.65
2023-01-17T22:49:00.601Z,2.92
2023-01-17T22:54:02.437Z,4.28
2023-01-17T22:59:04.269Z,3.35
2023-01-17T23:04:06.321Z,3.35
2023-01-17T23:09:09.363Z,3.45
2023-01-17T23:14:28.128Z,3.67
2023-01-17T23:19:32.244Z,3.63
2023-01-17T23:24:34.059Z,3.42
2023-01-17T23:29:35.981Z,3.60
2023-01-17T23:34:37.779Z,3.58
2023-01-17T23:39:39.630Z,3.72
2023-01-17T23:44:41.474Z,3.90
2023-01-17T23:49:43.370Z,4.18
2023-01-17T23:54:45.202Z,3.72
2023-01-17T23:59:47.021Z,4.00
